createdAt,value
2023-04-26T00:03:01.452Z,17.42
2023-04-26T00:13:08.124Z,17.43
2023-04-26T00:23:14.472Z,17.43
2023-04-26T00:33:21.450Z,17.38
2023-04-26T00:43:28.391Z,17.38
2023-04-26T00:53:35.640Z,17.41
2023-04-26T01:03:43.057Z,17.38
2023-04-26T01:13:50.957Z,17.38
2023-04-26T01:23:57.584Z,17.38
2023-04-26T01:34:04.888Z,17.38
2023-04-26T01:44:12.553Z,17.38
2023-04-26T01:54:19.829Z,17.33
2023-04-26T02:04:27.178Z,17.36
2023-04-26T02:14:33.992Z,17.36
2023-04-26T02:24:41.342Z,17.31
2023-04-26T02:34:48.102Z,17.31
2023-04-26T02:44:54.797Z,17.34
2023-04-26T02:55:02.435Z,17.34
2023-04-26T03:05:10.069Z,17.34
2023-04-26T03:15:17.125Z,17.34
2023-04-26T03:25:24.489Z,17.35
2023-04-26T03:35:31.578Z,17.31
2023-04-26T03:45:38.707Z,17.29
2023-04-26T03:55:46.068Z,17.29
2023-04-26T04:05:53.355Z,17.34
2023-04-26T04:16:00.296Z,17.34
2023-04-26T04:26:07.808Z,17.29
2023-04-26T04:36:14.835Z,17.31
2023-04-26T04:46:21.885Z,17.31
2023-04-26T04:56:28.633Z,17.31
2023-04-26T05:06:35.920Z,17.38
2023-04-26T05:16:42.805Z,17.45
2023-04-26T05:26:49.699Z,17.52
2023-04-26T05:36:56.701Z,17.48
2023-04-26T05:47:04.021Z,17.43
2023-04-26T05:57:12.005Z,17.45
2023-04-26T06:07:19.795Z,17.47
2023-04-26T06:17:26.664Z,17.49
2023-04-26T06:27:33.219Z,17.49
2023-04-26T06:37:39.752Z,17.52
2023-04-26T06:47:46.716Z,17.52
2023-04-26T06:57:53.685Z,17.64
2023-04-26T07:08:00.874Z,17.91
2023-04-26T07:18:07.615Z,17.91
2023-04-26T07:28:14.954Z,18.09
2023-04-26T07:38:22.197Z,18.52
2023-04-26T07:48:29.740Z,18.52
2023-04-26T07:58:37.029Z,18.64
2023-04-26T08:08:44.644Z,18.90
2023-04-26T08:18:52.257Z,18.90
2023-04-26T08:28:58.950Z,18.90
2023-04-26T08:39:06.191Z,18.86
2023-04-26T08:49:13.045Z,18.86
2023-04-26T08:59:19.172Z,18.98
2023-04-26T09:09:27.937Z,18.96
2023-04-26T09:19:36.385Z,18.96
2023-04-26T09:29:43.268Z,18.91
2023-04-26T09:39:50.538Z,18.85
2023-04-26T09:49:57.437Z,18.95
2023-04-26T10:00:04.521Z,18.95
2023-04-26T10:10:11.415Z,18.91
2023-04-26T10:20:18.783Z,18.85
2023-04-26T10:30:25.886Z,18.78
2023-04-26T10:40:33.123Z,18.66
2023-04-26T10:50:39.691Z,18.66
2023-04-26T11:00:47.326Z,18.62
2023-04-26T11:10:55.188Z,18.56
2023-04-26T11:21:01.957Z,18.56
2023-04-26T11:31:08.879Z,18.49
2023-04-26T11:41:16.187Z,18.48
2023-04-26T11:51:23.009Z,18.35
2023-04-26T12:01:30.078Z,18.35
2023-04-26T12:11:36.856Z,18.34
2023-04-26T12:21:44.073Z,18.35
2023-04-26T12:31:50.901Z,18.37
2023-04-26T12:41:58.522Z,18.34
2023-04-26T12:52:05.929Z,18.34
2023-04-26T13:02:13.101Z,18.34
2023-04-26T13:12:20.237Z,18.32
2023-04-26T13:22:27.292Z,18.31
2023-04-26T13:32:34.766Z,18.32
2023-04-26T13:42:41.706Z,18.31
2023-04-26T13:52:48.374Z,18.31
2023-04-26T14:02:55.933Z,18.27
2023-04-26T14:13:03.558Z,18.29
2023-04-26T14:23:10.406Z,18.29
2023-04-26T14:33:17.752Z,18.29
2023-04-26T14:43:24.858Z,18.30
2023-04-26T14:53:32.196Z,18.30
2023-04-26T15:03:40.218Z,18.29
2023-04-26T15:13:47.006Z,18.29
2023-04-26T15:23:53.967Z,18.25
2023-04-26T15:34:00.783Z,18.23
2023-04-26T15:44:08.061Z,18.18
2023-04-26T15:54:15.208Z,18.18
2023-04-26T16:04:22.184Z,18.18
2023-04-26T16:14:29.254Z,18.16
2023-04-26T16:24:36.393Z,18.14
2023-04-26T16:34:43.265Z,18.09
2023-04-26T16:44:50.041Z,18.09
2023-04-26T16:54:56.142Z,18.08
2023-04-26T17:05:03.811Z,18.07
2023-04-26T17:15:11.155Z,18.07
2023-04-26T17:25:18.555Z,18.07
2023-04-26T17:35:25.760Z,18.07
2023-04-26T17:45:33.560Z,18.02
2023-04-26T17:55:40.381Z,18.02
2023-04-26T18:05:47.586Z,18.01
2023-04-26T18:15:54.899Z,17.96
2023-04-26T18:26:01.595Z,17.93
2023-04-26T18:36:08.936Z,17.85
2023-04-26T18:46:15.983Z,17.80
2023-04-26T18:56:22.798Z,17.77
2023-04-26T19:06:30.243Z,17.76
2023-04-26T19:16:36.861Z,17.76
2023-04-26T19:26:43.707Z,17.73
2023-04-26T19:36:50.927Z,17.73
2023-04-26T19:46:58.166Z,17.71
2023-04-26T19:57:05.484Z,17.70
2023-04-26T20:07:11.820Z,17.70
2023-04-26T20:17:19.317Z,17.71
2023-04-26T20:27:27.251Z,17.70
2023-04-26T20:37:33.655Z,17.70
2023-04-26T20:47:40.430Z,17.69
2023-04-26T20:57:47.343Z,17.69
2023-04-26T21:07:54.445Z,17.70
2023-04-26T21:18:01.537Z,17.70
2023-04-26T21:28:09.269Z,17.68
2023-04-26T21:38:16.335Z,17.68
2023-04-26T21:48:23.314Z,17.70
2023-04-26T21:58:29.625Z,17.70
2023-04-26T22:08:36.720Z,17.69
2023-04-26T22:18:44.081Z,17.73
2023-04-26T22:28:50.878Z,17.73
2023-04-26T22:38:57.555Z,17.69
2023-04-26T22:49:04.892Z,17.69
2023-04-26T22:59:11.836Z,17.69
2023-04-26T23:09:19.825Z,17.70
2023-04-26T23:19:27.409Z,17.73
2023-04-26T23:29:34.126Z,17.73
2023-04-26T23:39:41.571Z,17.73
2023-04-26T23:49:48.849Z,17.73
2023-04-26T23:59:56.313Z,17.69
